Tigerville, South Carolina
Current Conditions -  °F | °C
As of 3:53 PM on Thursday 20 Nov 2014 (Local Time) from KGMU Reporting Station
Clear Clear  
Wind Chill: 15°   Ceiling: Unl
Heat Index: 15°   Visibility: 10mi
Dew Point: -5°   Wind: 18mph
Humidity: 25%   Direction: 250°WSW
Pressure: 30.08"   Gusts: 29mph
Location:  35.07°N, 82.37°W
Report Text: KGMU 202053Z 25016G25KT 10SM CLR 15/M05 A3008 RMK AO2 SLP187 T01501050 55009
Loading
Personal Weather Stations






























Interactive Weather Map New forecast layout! Learn more

10-Day Weather Forecast

Advertisements
Track Severe Weather on mobile